AFL1315 UMKK-ULLI
Flight info
| Callsign | AFL1315 |
|---|---|
| Flight time | N/A |
| Altitude | 37000 |
| Route | PELUG3N PELUG DCT KEDUX DCT PIVAX DCT PINIX DCT PIRUX DCT PISIM DCT PIDIN DCT ARANS/K0839F370 DCT PISIS DCT AKARU AKARU1V |
| Aircraft | A20N/M-SDE2E3FGHIRWXY/LB1 |
Departure
| Time | 2026-05-04 15:31 |
|---|---|
| Airport | Khrabrovo Airport (UMKK) |
Arrival
| Time | N/A |
|---|---|
| Airport | Pulkovo Airport (ULLI) |
| Time | Latitude | Longitude | Altitude | Speed | Heading |
|---|---|---|---|---|---|
| 2026-05-04 14:53 | 54.88408 | 20.58656 | 54 ft | 0 kts | 153° |
| 2026-05-04 15:19 | 54.88411 | 20.58654 | 54 ft | 2 kts | 153° |
| 2026-05-04 15:19 | 54.88426 | 20.58642 | 54 ft | 2 kts | 155° |
| 2026-05-04 15:19 | 54.88453 | 20.58610 | 49 ft | 2 kts | 120° |
| 2026-05-04 15:20 | 54.88457 | 20.58583 | 54 ft | 2 kts | 89° |
| 2026-05-04 15:20 | 54.88456 | 20.58567 | 48 ft | 1 kts | 72° |
| 2026-05-04 15:20 | 54.88456 | 20.58566 | 48 ft | 0 kts | 71° |
| 2026-05-04 15:23 | 54.88461 | 20.58586 | 51 ft | 6 kts | 66° |
| 2026-05-04 15:23 | 54.88488 | 20.58690 | 54 ft | 11 kts | 65° |
| 2026-05-04 15:23 | 54.88520 | 20.58806 | 54 ft | 9 kts | 53° |
| 2026-05-04 15:23 | 54.88582 | 20.58801 | 54 ft | 11 kts | 337° |
| 2026-05-04 15:24 | 54.88712 | 20.58701 | 54 ft | 0 kts | 335° |
| 2026-05-04 15:24 | 54.88719 | 20.58695 | 54 ft | 4 kts | 335° |
| 2026-05-04 15:25 | 54.88771 | 20.58654 | 54 ft | 10 kts | 336° |
| 2026-05-04 15:25 | 54.88838 | 20.58631 | 53 ft | 10 kts | 34° |
| 2026-05-04 15:25 | 54.88876 | 20.58756 | 53 ft | 15 kts | 66° |
| 2026-05-04 15:26 | 54.88966 | 20.59102 | 53 ft | 15 kts | 66° |
| 2026-05-04 15:26 | 54.89011 | 20.59277 | 54 ft | 17 kts | 65° |
| 2026-05-04 15:26 | 54.89113 | 20.59670 | 51 ft | 20 kts | 66° |
| 2026-05-04 15:27 | 54.89172 | 20.59897 | 51 ft | 21 kts | 66° |
| 2026-05-04 15:27 | 54.89297 | 20.60377 | 52 ft | 22 kts | 66° |
| 2026-05-04 15:28 | 54.89425 | 20.60871 | 47 ft | 23 kts | 66° |
| 2026-05-04 15:28 | 54.89493 | 20.61133 | 50 ft | 24 kts | 65° |
| 2026-05-04 15:28 | 54.89633 | 20.61673 | 50 ft | 23 kts | 66° |
| 2026-05-04 15:29 | 54.89699 | 20.61929 | 53 ft | 23 kts | 66° |
| 2026-05-04 15:30 | 54.89748 | 20.62116 | 50 ft | 8 kts | 246° |
| 2026-05-04 15:30 | 54.89659 | 20.61773 | 50 ft | 67 kts | 246° |
| 2026-05-04 15:31 | 54.88914 | 20.58933 | 377 ft | 160 kts | 247° |
| 2026-05-04 15:31 | 54.88475 | 20.57220 | 1214 ft | 148 kts | 250° |
| 2026-05-04 15:32 | 54.88940 | 20.52398 | 3858 ft | 146 kts | 290° |
| 2026-05-04 15:32 | 54.90253 | 20.49570 | 5324 ft | 157 kts | 311° |
| 2026-05-04 15:33 | 54.92380 | 20.47258 | 6310 ft | 213 kts | 325° |
| 2026-05-04 15:34 | 54.96720 | 20.44262 | 7764 ft | 272 kts | 333° |
| 2026-05-04 15:34 | 54.98514 | 20.43169 | 8782 ft | 274 kts | 333° |
| 2026-05-04 15:34 | 55.02790 | 20.40453 | 10604 ft | 299 kts | 332° |
| 2026-05-04 15:35 | 55.06260 | 20.38092 | 11222 ft | 337 kts | 332° |